createdAt,value
2022-11-09T00:00:23.490Z,3.67
2022-11-09T00:02:50.609Z,3.17
2022-11-09T00:05:17.752Z,4.13
2022-11-09T00:07:44.792Z,3.70
2022-11-09T00:10:11.942Z,3.30
2022-11-09T00:12:39.009Z,3.08
2022-11-09T00:15:08.619Z,3.50
2022-11-09T00:17:36.091Z,4.32
2022-11-09T00:20:03.677Z,3.47
2022-11-09T00:22:30.726Z,3.65
2022-11-09T00:24:57.786Z,3.15
2022-11-09T00:27:24.958Z,3.03
2022-11-09T00:29:52.266Z,3.30
2022-11-09T00:32:25.198Z,2.85
2022-11-09T00:34:54.970Z,3.85
2022-11-09T00:37:22.289Z,2.97
2022-11-09T00:39:49.338Z,3.00
2022-11-09T00:42:16.758Z,3.03
2022-11-09T00:44:43.860Z,4.13
2022-11-09T00:47:11.025Z,4.32
2022-11-09T00:49:39.629Z,3.30
2022-11-09T00:52:06.880Z,2.90
2022-11-09T00:54:34.662Z,3.40
2022-11-09T00:57:01.742Z,3.35
2022-11-09T00:59:30.577Z,3.50
2022-11-09T01:01:57.468Z,4.20
2022-11-09T01:04:24.825Z,3.35
2022-11-09T01:06:53.424Z,3.22
2022-11-09T01:09:20.708Z,3.70
2022-11-09T01:11:48.473Z,3.28
2022-11-09T01:14:15.956Z,3.40
2022-11-09T01:16:43.150Z,3.35
2022-11-09T01:19:10.155Z,3.50
2022-11-09T01:21:37.396Z,3.05
2022-11-09T01:24:06.289Z,3.67
2022-11-09T01:26:34.520Z,3.28
2022-11-09T01:29:01.669Z,3.08
2022-11-09T01:31:28.791Z,3.90
2022-11-09T01:33:56.365Z,3.50
2022-11-09T01:36:24.594Z,2.95
2022-11-09T01:38:51.845Z,3.40
2022-11-09T01:41:22.022Z,2.85
2022-11-09T01:44:08.470Z,4.22
2022-11-09T01:46:43.597Z,2.92
2022-11-09T01:49:16.728Z,4.00
2022-11-09T01:51:49.089Z,3.40
2022-11-09T01:54:20.501Z,2.90
2022-11-09T01:56:53.742Z,3.78
2022-11-09T01:59:25.537Z,3.90
2022-11-09T02:01:54.117Z,3.72
2022-11-09T02:04:25.128Z,4.03
2022-11-09T02:06:54.658Z,3.00
2022-11-09T02:09:27.197Z,3.30
2022-11-09T02:11:56.641Z,3.10
2022-11-09T02:14:26.943Z,2.97
2022-11-09T02:16:54.258Z,2.63
2022-11-09T02:19:21.455Z,2.90
2022-11-09T02:21:50.704Z,3.00
2022-11-09T02:24:18.700Z,2.85
2022-11-09T02:26:48.780Z,3.00
2022-11-09T02:29:19.276Z,3.78
2022-11-09T02:32:00.958Z,3.10
2022-11-09T02:34:28.119Z,3.35
2022-11-09T02:36:56.809Z,3.60
2022-11-09T02:39:27.527Z,3.70
2022-11-09T02:42:03.356Z,3.10
2022-11-09T02:44:35.317Z,3.33
2022-11-09T02:47:02.488Z,3.13
2022-11-09T02:49:29.476Z,3.25
2022-11-09T02:51:58.061Z,3.40
2022-11-09T02:54:25.280Z,3.05
2022-11-09T02:56:52.294Z,3.80
2022-11-09T02:59:19.299Z,3.25
2022-11-09T03:01:46.282Z,3.65
2022-11-09T03:04:13.345Z,2.60
2022-11-09T03:06:40.416Z,2.60
2022-11-09T03:09:10.922Z,3.47
2022-11-09T03:11:39.488Z,3.15
2022-11-09T03:14:06.951Z,3.70
2022-11-09T03:16:34.012Z,4.07
2022-11-09T03:19:01.119Z,3.47
2022-11-09T03:21:29.342Z,2.95
2022-11-09T03:23:56.556Z,3.22
2022-11-09T03:26:25.233Z,3.72
2022-11-09T03:28:52.242Z,3.35
2022-11-09T03:31:19.482Z,3.20
2022-11-09T03:33:46.500Z,3.55
2022-11-09T03:36:13.697Z,3.53
2022-11-09T03:38:40.756Z,3.03
2022-11-09T03:41:07.783Z,3.65
2022-11-09T03:43:36.539Z,3.13
2022-11-09T03:46:03.590Z,3.83
2022-11-09T03:48:30.686Z,3.40
2022-11-09T03:50:57.653Z,3.28
2022-11-09T03:53:25.276Z,3.53
2022-11-09T03:55:52.379Z,3.85
2022-11-09T03:58:19.360Z,4.38
2022-11-09T04:00:47.839Z,4.05
2022-11-09T04:03:14.898Z,5.03
2022-11-09T04:05:41.952Z,4.35
2022-11-09T04:08:08.972Z,4.45
2022-11-09T04:10:36.151Z,4.00
2022-11-09T04:13:03.314Z,5.90
2022-11-09T04:15:30.654Z,4.80
2022-11-09T04:18:01.026Z,4.70
2022-11-09T04:20:30.011Z,4.00
2022-11-09T04:22:58.687Z,3.17
2022-11-09T04:25:26.632Z,4.68
2022-11-09T04:27:57.595Z,4.30
2022-11-09T04:30:26.235Z,4.35
2022-11-09T04:32:53.445Z,4.70
2022-11-09T04:35:21.915Z,4.05
2022-11-09T04:37:53.834Z,4.47
2022-11-09T04:40:20.994Z,6.53
2022-11-09T04:42:48.044Z,4.88
2022-11-09T04:45:15.145Z,4.63
2022-11-09T04:47:42.410Z,4.82
2022-11-09T04:50:10.057Z,4.47
2022-11-09T04:52:38.884Z,5.40
2022-11-09T04:55:07.270Z,4.22
2022-11-09T04:57:34.473Z,4.20
2022-11-09T05:00:01.596Z,3.75
2022-11-09T05:02:28.687Z,4.55
2022-11-09T05:04:55.697Z,4.35
2022-11-09T05:07:22.737Z,4.90
2022-11-09T05:09:51.377Z,4.25
2022-11-09T05:12:18.410Z,4.68
2022-11-09T05:14:45.446Z,4.85
2022-11-09T05:17:12.460Z,4.53
2022-11-09T05:19:39.396Z,3.75
2022-11-09T05:22:06.518Z,4.38
2022-11-09T05:24:33.524Z,4.55
2022-11-09T05:27:01.946Z,5.00
2022-11-09T05:29:28.939Z,5.72
2022-11-09T05:31:56.047Z,5.40
2022-11-09T05:34:23.105Z,5.18
2022-11-09T05:36:50.354Z,4.45
2022-11-09T05:39:17.471Z,4.13
2022-11-09T05:41:44.592Z,3.83
2022-11-09T05:44:13.261Z,3.72
2022-11-09T05:46:40.354Z,4.47
2022-11-09T05:49:07.511Z,4.30
2022-11-09T05:51:34.585Z,3.83
2022-11-09T05:54:01.588Z,3.13
2022-11-09T05:56:29.235Z,4.03
2022-11-09T05:58:56.389Z,3.78
2022-11-09T06:01:25.335Z,3.60
2022-11-09T06:03:54.132Z,5.18
2022-11-09T06:06:21.060Z,5.35
2022-11-09T06:08:48.337Z,3.53
2022-11-09T06:11:22.851Z,3.28
2022-11-09T06:13:51.478Z,4.35
2022-11-09T06:16:18.630Z,4.13
2022-11-09T06:18:47.011Z,4.22
2022-11-09T06:21:14.145Z,4.75
2022-11-09T06:23:41.165Z,5.28
2022-11-09T06:26:10.664Z,4.80
2022-11-09T06:28:38.908Z,4.47
2022-11-09T06:31:08.542Z,4.15
2022-11-09T06:33:36.860Z,4.05
2022-11-09T06:36:06.766Z,3.50
2022-11-09T06:38:34.232Z,4.47
2022-11-09T06:41:01.659Z,6.00
2022-11-09T06:43:29.065Z,7.70
2022-11-09T06:45:56.516Z,7.47
2022-11-09T06:48:25.057Z,8.85
2022-11-09T06:50:52.004Z,7.32
2022-11-09T06:53:20.680Z,4.07
2022-11-09T06:55:50.819Z,4.05
2022-11-09T06:58:18.805Z,4.47
2022-11-09T07:00:46.268Z,4.20
2022-11-09T07:03:14.793Z,4.40
2022-11-09T07:05:42.261Z,5.13
2022-11-09T07:08:09.809Z,5.90
2022-11-09T07:10:39.159Z,5.88
2022-11-09T07:13:07.425Z,4.80
2022-11-09T07:15:34.801Z,5.80
2022-11-09T07:18:03.870Z,5.82
2022-11-09T07:20:31.433Z,5.05
2022-11-09T07:22:58.676Z,4.20
2022-11-09T07:25:25.736Z,5.32
2022-11-09T07:27:54.122Z,4.25
2022-11-09T07:30:21.146Z,4.63
2022-11-09T07:35:35.498Z,3.97
2022-11-09T07:38:02.481Z,3.55
2022-11-09T07:40:30.167Z,5.13
2022-11-09T07:43:00.008Z,3.90
2022-11-09T07:45:27.159Z,4.28
2022-11-09T07:47:56.069Z,4.30
2022-11-09T07:50:23.040Z,5.32
2022-11-09T07:52:50.063Z,6.82
2022-11-09T07:55:17.284Z,6.93
2022-11-09T07:57:44.807Z,5.28
2022-11-09T08:00:17.761Z,4.80
2022-11-09T08:02:49.509Z,4.35
2022-11-09T08:05:16.553Z,4.65
2022-11-09T08:07:43.991Z,4.43
2022-11-09T08:10:11.027Z,4.70
2022-11-09T08:12:37.956Z,3.75
2022-11-09T08:15:06.345Z,5.13
2022-11-09T08:17:34.904Z,4.90
2022-11-09T08:20:02.394Z,6.60
2022-11-09T08:22:29.383Z,6.22
2022-11-09T08:24:56.263Z,6.88
2022-11-09T08:27:23.264Z,6.35
2022-11-09T08:29:50.215Z,6.25
2022-11-09T08:32:17.398Z,7.40
2022-11-09T08:34:48.559Z,6.65
2022-11-09T08:37:16.318Z,6.85
2022-11-09T08:39:44.678Z,5.72
2022-11-09T08:42:11.661Z,6.63
2022-11-09T08:44:38.635Z,5.85
2022-11-09T08:47:06.028Z,5.95
2022-11-09T08:49:33.110Z,4.80
2022-11-09T08:52:01.658Z,4.70
2022-11-09T08:54:28.557Z,5.90
2022-11-09T08:56:55.666Z,5.10
2022-11-09T08:59:22.813Z,5.28
2022-11-09T09:01:49.849Z,5.07
2022-11-09T09:04:16.829Z,6.28
2022-11-09T09:06:43.766Z,6.10
2022-11-09T09:09:12.228Z,5.80
2022-11-09T09:11:39.214Z,5.53
2022-11-09T09:14:06.350Z,6.18
2022-11-09T09:16:34.068Z,5.25
2022-11-09T09:19:01.943Z,5.72
2022-11-09T09:21:29.450Z,6.00
2022-11-09T09:23:56.493Z,4.90
2022-11-09T09:26:25.249Z,5.25
2022-11-09T09:28:52.608Z,4.60
2022-11-09T09:31:20.145Z,3.80
2022-11-09T09:33:47.811Z,3.53
2022-11-09T09:36:18.736Z,4.13
2022-11-09T09:38:46.558Z,3.92
2022-11-09T09:41:21.912Z,5.63
2022-11-09T09:43:54.945Z,5.03
2022-11-09T09:46:27.046Z,5.38
2022-11-09T09:48:58.682Z,5.28
2022-11-09T09:51:43.188Z,5.32
2022-11-09T09:54:15.393Z,5.75
2022-11-09T09:56:45.952Z,5.28
2022-11-09T09:59:21.144Z,5.82
2022-11-09T10:01:49.299Z,5.43
2022-11-09T10:04:19.705Z,5.82
2022-11-09T10:06:58.484Z,5.35
2022-11-09T10:09:39.699Z,5.88
2022-11-09T10:12:16.199Z,5.10
2022-11-09T10:15:14.423Z,5.45
2022-11-09T10:17:52.831Z,5.30
2022-11-09T10:20:36.345Z,4.88
2022-11-09T10:23:21.016Z,5.10
2022-11-09T10:26:04.471Z,4.50
2022-11-09T10:29:01.622Z,4.90
2022-11-09T10:31:34.125Z,3.80
2022-11-09T10:34:17.988Z,4.32
2022-11-09T10:36:53.646Z,4.40
2022-11-09T10:39:24.323Z,4.93
2022-11-09T10:41:51.655Z,4.57
2022-11-09T10:44:20.348Z,3.97
2022-11-09T10:47:10.124Z,4.97
2022-11-09T10:49:38.394Z,4.90
2022-11-09T10:52:06.005Z,5.03
2022-11-09T10:54:34.853Z,4.50
2022-11-09T10:57:16.960Z,4.65
2022-11-09T10:59:51.766Z,4.82
2022-11-09T11:02:44.623Z,4.60
2022-11-09T11:05:34.226Z,5.00
2022-11-09T11:08:32.427Z,4.80
2022-11-09T11:11:36.425Z,4.10
2022-11-09T11:14:18.483Z,3.45
2022-11-09T11:16:49.453Z,4.15
2022-11-09T11:19:31.685Z,4.70
2022-11-09T11:22:19.368Z,4.55
2022-11-09T11:24:52.890Z,5.43
2022-11-09T11:27:24.630Z,4.93
2022-11-09T11:29:59.924Z,5.15
2022-11-09T11:32:27.478Z,5.50
2022-11-09T11:35:01.017Z,5.18
2022-11-09T11:37:46.689Z,5.20
2022-11-09T11:40:20.542Z,6.20
2022-11-09T11:43:27.856Z,6.25
2022-11-09T11:46:04.715Z,5.57
2022-11-09T11:49:00.064Z,5.80
2022-11-09T11:51:39.657Z,6.22
2022-11-09T11:54:13.713Z,6.15
2022-11-09T11:56:46.151Z,5.45
2022-11-09T11:59:36.380Z,6.32
2022-11-09T12:02:30.543Z,4.90
2022-11-09T12:05:27.249Z,6.00
2022-11-09T12:08:05.678Z,5.32
2022-11-09T12:10:44.618Z,5.50
2022-11-09T12:13:28.324Z,5.15
2022-11-09T12:16:02.025Z,6.32
2022-11-09T12:18:40.796Z,6.20
2022-11-09T12:21:16.350Z,6.35
2022-11-09T12:23:59.036Z,6.35
2022-11-09T12:26:43.361Z,6.25
2022-11-09T12:29:19.505Z,5.20
2022-11-09T12:31:58.363Z,6.40
2022-11-09T12:34:31.507Z,6.40
2022-11-09T12:37:02.911Z,6.10
2022-11-09T12:39:36.377Z,6.38
2022-11-09T12:42:07.211Z,5.93
2022-11-09T12:44:40.430Z,6.80
2022-11-09T12:47:13.260Z,6.53
2022-11-09T12:49:42.295Z,6.07
2022-11-09T12:52:14.281Z,6.28
2022-11-09T12:54:46.500Z,6.30
2022-11-09T12:57:17.618Z,6.40
2022-11-09T12:59:49.944Z,6.70
2022-11-09T13:02:24.844Z,6.15
2022-11-09T13:04:57.630Z,5.93
2022-11-09T13:07:47.819Z,5.70
2022-11-09T13:10:31.536Z,6.28
2022-11-09T13:13:23.411Z,6.85
2022-11-09T13:16:12.369Z,6.25
2022-11-09T13:18:52.775Z,5.75
2022-11-09T13:21:46.687Z,6.47
2022-11-09T13:24:53.036Z,7.53
2022-11-09T13:27:43.190Z,6.57
2022-11-09T13:30:40.483Z,5.97
2022-11-09T13:33:21.760Z,6.63
2022-11-09T13:36:22.521Z,6.88
2022-11-09T13:39:29.227Z,6.93
2022-11-09T13:41:56.645Z,6.05
2022-11-09T13:44:32.605Z,6.40
2022-11-09T13:47:03.155Z,6.47
2022-11-09T13:49:46.729Z,6.93
2022-11-09T13:52:45.085Z,6.28
2022-11-09T13:55:19.224Z,6.70
2022-11-09T13:57:47.110Z,6.63
2022-11-09T14:00:21.215Z,6.75
2022-11-09T14:02:57.695Z,7.60
2022-11-09T14:05:27.702Z,7.75
2022-11-09T14:07:55.634Z,8.75
2022-11-09T14:10:45.288Z,9.20
2022-11-09T14:13:46.512Z,8.15
2022-11-09T14:16:24.266Z,9.18
2022-11-09T14:19:04.269Z,8.40
2022-11-09T14:21:45.337Z,9.13
2022-11-09T14:24:18.714Z,9.27
2022-11-09T14:27:17.816Z,9.25
2022-11-09T14:29:51.538Z,9.10
2022-11-09T14:32:32.839Z,10.07
2022-11-09T14:35:29.596Z,8.82
2022-11-09T14:37:59.504Z,9.85
2022-11-09T14:40:28.701Z,9.30
2022-11-09T14:43:00.369Z,9.68
2022-11-09T14:45:28.502Z,10.10
2022-11-09T14:48:00.178Z,10.18
2022-11-09T14:50:31.228Z,9.90
2022-11-09T14:52:59.356Z,10.52
2022-11-09T14:55:27.875Z,10.68
2022-11-09T14:57:57.360Z,10.40
2022-11-09T15:00:30.898Z,9.18
2022-11-09T15:03:00.287Z,10.27
2022-11-09T15:05:45.383Z,8.77
2022-11-09T15:08:19.360Z,9.05
2022-11-09T15:10:50.385Z,9.10
2022-11-09T15:13:18.326Z,8.30
2022-11-09T15:15:52.252Z,9.50
2022-11-09T15:18:26.892Z,8.50
2022-11-09T15:21:16.962Z,9.48
2022-11-09T15:23:47.016Z,8.98
2022-11-09T15:26:34.112Z,9.00
2022-11-09T15:29:01.606Z,9.30
2022-11-09T15:31:29.447Z,9.05
2022-11-09T15:33:58.582Z,8.27
2022-11-09T15:36:30.779Z,8.48
2022-11-09T15:39:04.418Z,8.95
2022-11-09T15:41:32.173Z,9.55
2022-11-09T15:43:59.513Z,9.48
2022-11-09T15:46:32.490Z,9.57
2022-11-09T15:49:13.778Z,9.40
2022-11-09T15:51:41.978Z,9.52
2022-11-09T15:54:09.688Z,10.30
2022-11-09T15:56:37.257Z,10.23
2022-11-09T15:59:05.555Z,11.23
2022-11-09T16:01:32.865Z,10.18
2022-11-09T16:04:04.863Z,9.40
2022-11-09T16:06:32.168Z,22.63
2022-11-09T16:08:59.587Z,16.30
2022-11-09T16:11:27.934Z,9.98
2022-11-09T16:13:55.662Z,9.77
2022-11-09T16:16:23.260Z,10.60
2022-11-09T16:18:50.779Z,9.70
2022-11-09T16:21:20.065Z,10.32
2022-11-09T16:23:47.774Z,11.65
2022-11-09T16:26:17.327Z,13.10
2022-11-09T16:28:46.201Z,11.52
2022-11-09T16:31:14.525Z,11.45
2022-11-09T16:33:41.939Z,11.93
2022-11-09T16:36:13.790Z,16.08
2022-11-09T16:38:46.189Z,11.77
2022-11-09T16:41:14.806Z,13.05
2022-11-09T16:43:44.412Z,9.75
2022-11-09T16:46:14.204Z,11.82
2022-11-09T16:48:42.372Z,17.27
2022-11-09T16:51:11.576Z,15.88
2022-11-09T16:53:38.915Z,10.57
2022-11-09T16:56:08.467Z,17.77
2022-11-09T16:58:36.834Z,13.50
2022-11-09T17:01:12.049Z,11.57
2022-11-09T17:03:40.105Z,10.15
2022-11-09T17:06:10.811Z,11.13
2022-11-09T17:08:39.080Z,12.00
2022-11-09T17:11:11.903Z,15.68
2022-11-09T17:13:40.947Z,11.13
2022-11-09T17:16:11.532Z,9.43
2022-11-09T17:18:40.312Z,10.27
2022-11-09T17:21:10.821Z,11.32
2022-11-09T17:23:39.498Z,10.40
2022-11-09T17:28:52.583Z,11.60
2022-11-09T17:31:22.154Z,10.93
2022-11-09T17:33:50.704Z,9.52
2022-11-09T17:36:35.056Z,9.65
2022-11-09T17:39:07.672Z,8.93
2022-11-09T17:41:42.260Z,9.23
2022-11-09T17:44:16.062Z,10.20
2022-11-09T17:46:45.233Z,11.13
2022-11-09T17:49:13.623Z,11.73
2022-11-09T17:51:41.516Z,10.35
2022-11-09T17:54:09.862Z,10.98
2022-11-09T17:56:39.589Z,11.27
2022-11-09T17:59:07.648Z,9.68
2022-11-09T18:01:40.766Z,9.48
2022-11-09T18:04:10.916Z,9.85
2022-11-09T18:06:39.316Z,10.27
2022-11-09T18:09:39.746Z,11.05
2022-11-09T18:11:58.814Z,9.90
2022-11-09T18:14:26.799Z,9.27
2022-11-09T18:16:54.668Z,8.80
2022-11-09T18:19:22.992Z,10.32
2022-11-09T18:21:53.041Z,11.23
2022-11-09T18:24:22.078Z,9.85
2022-11-09T18:26:50.976Z,9.73
2022-11-09T18:29:21.627Z,9.70
2022-11-09T18:31:51.140Z,10.05
2022-11-09T18:34:19.302Z,9.35
2022-11-09T18:36:48.291Z,9.90
2022-11-09T18:39:16.220Z,10.90
2022-11-09T18:41:44.950Z,9.15
2022-11-09T18:44:21.640Z,10.63
2022-11-09T18:46:51.785Z,9.13
2022-11-09T18:49:21.354Z,10.10
2022-11-09T18:51:49.381Z,9.90
2022-11-09T18:54:17.175Z,10.30
2022-11-09T18:56:45.221Z,8.80
2022-11-09T18:59:16.308Z,9.60
2022-11-09T19:01:44.227Z,9.20
2022-11-09T19:04:16.883Z,10.00
2022-11-09T19:06:44.810Z,9.93
2022-11-09T19:09:14.376Z,9.57
2022-11-09T19:11:44.943Z,8.50
2022-11-09T19:14:13.943Z,8.57
2022-11-09T19:16:44.003Z,8.13
2022-11-09T19:19:15.189Z,8.88
2022-11-09T19:21:47.183Z,8.55
2022-11-09T19:24:19.152Z,9.68
2022-11-09T19:26:50.680Z,9.70
2022-11-09T19:29:19.282Z,10.27
2022-11-09T19:31:47.359Z,9.45
2022-11-09T19:34:20.064Z,9.60
2022-11-09T19:36:49.618Z,13.73
2022-11-09T19:39:20.122Z,9.60
2022-11-09T19:41:48.630Z,10.88
2022-11-09T19:44:17.289Z,12.13
2022-11-09T19:46:48.188Z,12.50
2022-11-09T19:49:18.548Z,10.68
2022-11-09T19:51:47.472Z,11.40
2022-11-09T19:54:15.200Z,11.63
2022-11-09T19:56:44.782Z,10.63
2022-11-09T19:59:16.141Z,11.15
2022-11-09T20:01:44.728Z,9.55
2022-11-09T20:04:13.606Z,10.07
2022-11-09T20:06:45.012Z,9.50
2022-11-09T20:09:13.991Z,11.45
2022-11-09T20:11:43.032Z,10.02
2022-11-09T20:14:14.524Z,8.73
2022-11-09T20:16:45.706Z,10.20
2022-11-09T20:19:16.052Z,9.52
2022-11-09T20:21:46.753Z,10.27
2022-11-09T20:24:15.404Z,9.13
2022-11-09T20:26:44.267Z,8.07
2022-11-09T20:29:13.428Z,8.88
2022-11-09T20:31:50.593Z,7.72
2022-11-09T20:34:18.598Z,8.68
2022-11-09T20:36:49.467Z,8.23
2022-11-09T20:39:18.077Z,8.77
2022-11-09T20:41:47.848Z,8.38
2022-11-09T20:44:17.688Z,8.10
2022-11-09T20:46:45.634Z,7.90
2022-11-09T20:49:16.826Z,8.02
2022-11-09T20:51:50.905Z,8.13
2022-11-09T20:54:20.679Z,7.72
2022-11-09T20:56:50.138Z,7.45
2022-11-09T20:59:17.746Z,7.53
2022-11-09T21:01:46.767Z,7.13
2022-11-09T21:04:16.275Z,7.93
2022-11-09T21:06:49.833Z,7.63
2022-11-09T21:09:17.844Z,8.77
2022-11-09T21:11:45.358Z,8.00
2022-11-09T21:14:13.242Z,7.43
2022-11-09T21:16:40.955Z,8.80
2022-11-09T21:19:09.275Z,7.53
2022-11-09T21:21:37.127Z,8.63
2022-11-09T21:24:09.326Z,9.15
2022-11-09T21:26:40.221Z,8.13
2022-11-09T21:29:10.405Z,10.10
2022-11-09T21:31:38.126Z,8.57
2022-11-09T21:34:06.221Z,9.13
2022-11-09T21:36:33.522Z,8.70
2022-11-09T21:39:01.877Z,8.77
2022-11-09T21:41:30.811Z,8.13
2022-11-09T21:43:58.192Z,8.80
2022-11-09T21:46:25.425Z,8.65
2022-11-09T21:48:52.923Z,8.63
2022-11-09T21:51:20.845Z,7.85
2022-11-09T21:53:48.268Z,8.30
2022-11-09T21:56:15.539Z,8.68
2022-11-09T21:58:46.219Z,7.80
2022-11-09T22:01:13.479Z,8.43
2022-11-09T22:03:40.780Z,8.52
2022-11-09T22:06:08.606Z,8.10
2022-11-09T22:08:35.755Z,9.25
2022-11-09T22:11:07.530Z,7.93
2022-11-09T22:13:34.726Z,8.43
2022-11-09T22:16:03.876Z,8.45
2022-11-09T22:18:31.183Z,8.45
2022-11-09T22:20:58.506Z,7.53
2022-11-09T22:23:25.967Z,8.15
2022-11-09T22:25:52.929Z,9.10
2022-11-09T22:28:20.158Z,7.35
2022-11-09T22:30:47.766Z,8.32
2022-11-09T22:33:16.634Z,6.88
2022-11-09T22:35:43.820Z,7.63
2022-11-09T22:38:10.702Z,8.07
2022-11-09T22:40:37.592Z,7.93
2022-11-09T22:43:05.173Z,8.13
2022-11-09T22:45:34.215Z,8.23
2022-11-09T22:48:01.582Z,7.78
2022-11-09T22:50:31.214Z,8.18
2022-11-09T22:53:03.289Z,8.57
2022-11-09T22:55:31.766Z,8.35
2022-11-09T22:57:58.857Z,7.22
2022-11-09T23:00:26.722Z,7.28
2022-11-09T23:02:57.150Z,7.50
2022-11-09T23:05:24.484Z,7.97
2022-11-09T23:07:55.344Z,6.60
2022-11-09T23:10:22.331Z,6.35
2022-11-09T23:12:49.445Z,7.05
2022-11-09T23:15:16.566Z,5.65
2022-11-09T23:17:43.528Z,7.32
2022-11-09T23:20:11.971Z,7.45
2022-11-09T23:22:39.195Z,8.25
2022-11-09T23:25:09.736Z,7.15
2022-11-09T23:27:36.793Z,6.97
2022-11-09T23:30:04.653Z,7.10
2022-11-09T23:32:31.600Z,6.78
2022-11-09T23:34:59.369Z,6.53
2022-11-09T23:37:26.320Z,7.15
2022-11-09T23:39:53.619Z,6.65
2022-11-09T23:42:22.237Z,6.85
2022-11-09T23:44:49.195Z,6.25
2022-11-09T23:47:16.874Z,6.15
2022-11-09T23:49:43.813Z,6.78
2022-11-09T23:52:11.771Z,7.72
2022-11-09T23:54:38.792Z,7.15
2022-11-09T23:57:06.210Z,7.78
2022-11-09T23:59:36.165Z,7.78
